ADDS METAR Data INFO
IDs: Format: Raw Decoded Include TAF

Data at: 0103 UTC 21 Oct 2017

KPAN 210055Z AUTO 21008G13KT 170V240 10SM CLR 17/03 A2991 RMK AO2
KPAN 210035Z AUTO 21010G18KT 180V240 10SM CLR 18/03 A2992 RMK AO2
KPAN 210015Z AUTO 22009G19KT 10SM CLR 19/03 A2992 RMK AO2
KPAN 202355Z AUTO 21007G18KT 180V250 10SM CLR 19/02 A2991 RMK AO2
KPAN 202335Z AUTO 22010G20KT 10SM CLR 20/01 A2991 RMK AO2
KPAN 202315Z AUTO 21008G16KT 10SM CLR 21/01 A2991 RMK AO2
KPAN 202255Z AUTO 21014KT 10SM CLR 21/00 A2991 RMK AO2
KPAN 202235Z AUTO 20009G18KT 170V230 10SM 22/M00 A2991 RMK AO2
KPAN 202215Z AUTO 19011G17KT 10SM 22/M00 A2992 RMK AO2
KPAN 202155Z AUTO 20010G17KT A2993 RMK AO2 PWINO
KPAN 202135Z AUTO 22011G19KT 10SM 22/M00 A2992 RMK AO2
KPAN 202115Z AUTO 18011G22KT 150V220 10SM 22/00 A2992 RMK AO2
KPAN 202055Z AUTO 21013G21KT 10SM 22/M00 A2994 RMK AO2
KPAN 202035Z AUTO 22012G19KT 10SM 22/M00 A2993 RMK AO2
KPAN 202015Z AUTO 23015G24KT 10SM 22/M00 A2994 RMK AO2
KPAN 201955Z AUTO 22016G23KT 10SM 22/M00 A2996 RMK AO2
KPAN 201935Z AUTO 23015G25KT 10SM 22/M00 A2997 RMK AO2
KPAN 201915Z AUTO 22015G21KT 10SM 23/M01 A2998 RMK AO2
KPAN 201855Z AUTO 20009G15KT 10SM 22/M00 A2999 RMK AO2
KPAN 201835Z AUTO 22008G17KT 10SM 21/00 A3001 RMK AO2
KPAN 201815Z AUTO 20009G17KT 10SM 21/01 A3001 RMK AO2
KPAN 201755Z AUTO 20012G17KT 10SM 21/01 A3001 RMK AO2
KPAN 201735Z AUTO 20010KT 170V230 10SM 20/01 A3001 RMK AO2
KPAN 201715Z AUTO 19010G17KT 160V220 10SM 20/00 A3000 RMK AO2
KPAN 201655Z AUTO 18008G14KT 140V220 10SM 19/00 A3000 RMK AO2
KPAN 201635Z AUTO 20008KT 10SM 19/01 A3002 RMK AO2
KPAN 201615Z AUTO 21007KT 10SM 19/01 A3002 RMK AO2
KPAN 201555Z AUTO 17007KT 140V210 10SM 18/01 A3002 RMK AO2
KPAN 201535Z AUTO VRB05KT 10SM 17/01 A3002 RMK AO2
KPAN 201515Z AUTO 00000KT 10SM 14/02 A3003 RMK AO2
KPAN 201455Z AUTO 00000KT 10SM 12/01 A3002 RMK AO2
KPAN 201435Z AUTO 00000KT 10SM 10/01 A3002 RMK AO2
KPAN 201415Z AUTO 00000KT 10SM 10/01 A3001 RMK AO2
KPAN 201355Z AUTO 00000KT 10SM 09/01 A3000 RMK AO2
KPAN 201335Z AUTO 00000KT 10SM 09/01 A3000 RMK AO2
KPAN 201315Z AUTO 00000KT 10SM 12/01 A3001 RMK AO2
KPAN 201255Z AUTO 00000KT 10SM 09/01 A3000 RMK AO2
KPAN 201235Z AUTO 00000KT 10SM 10/01 A3000 RMK AO2
KPAN 201215Z AUTO 00000KT 10SM 10/01 A2999 RMK AO2
KPAN 201155Z AUTO 00000KT 10SM 10/01 A2999 RMK AO2
KPAN 201135Z AUTO 00000KT 10SM 10/00 A2999 RMK AO2
KPAN 201115Z AUTO 00000KT 10SM 13/01 A2999 RMK AO2
KPAN 201055Z AUTO 16005KT 10SM 14/01 A2999 RMK AO2
KPAN 201035Z AUTO 15003KT 10SM 12/02 A3000 RMK AO2
KPAN 201015Z AUTO 00000KT 10SM 12/00 A2999 RMK AO2
KPAN 200955Z AUTO 00000KT 10SM 11/00 A3000 RMK AO2
KPAN 200935Z AUTO 00000KT 10SM 12/00 A3001 RMK AO2
KPAN 200915Z AUTO 00000KT 10SM 12/00 A3001 RMK AO2
KPAN 200835Z AUTO 07003KT 10SM 14/00 A3000 RMK AO2
KPAN 200815Z AUTO 07004KT 10SM 14/00 A3001 RMK AO2
KPAN 200755Z AUTO 00000KT 10SM 12/00 A3001 RMK AO2
KPAN 200735Z AUTO 00000KT 10SM 12/M00 A3001 RMK AO2
KPAN 200715Z AUTO 00000KT 10SM 13/00 A3001 RMK AO2
KPAN 200655Z AUTO 00000KT 10SM 14/00 A3001 RMK AO2
KPAN 200635Z AUTO 00000KT 10SM 14/01 A3002 RMK AO2
KPAN 200615Z AUTO 00000KT 10SM 15/00 A3002 RMK AO2
KPAN 200555Z AUTO 00000KT 10SM 15/00 A3003 RMK AO2
KPAN 200535Z AUTO 00000KT 10SM 15/00 A3003 RMK AO2
KPAN 200515Z AUTO 00000KT 10SM 16/01 A3004 RMK AO2
KPAN 200455Z AUTO 00000KT 10SM 16/00 A3004 RMK AO2
KPAN 200435Z AUTO 00000KT 10SM 17/00 A3004 RMK AO2
KPAN 200415Z AUTO 00000KT 10SM 18/M00 A3003 RMK AO2
KPAN 200355Z AUTO 27005KT 10SM 18/M00 A3003 RMK AO2
KPAN 200335Z AUTO 27004KT 10SM 18/M00 A3003 RMK AO2
KPAN 200315Z AUTO 23004KT 10SM 19/M00 A3002 RMK AO2
KPAN 200255Z AUTO 24004KT 10SM 18/M00 A3002 RMK AO2
KPAN 200235Z AUTO 24003KT 10SM 18/M00 A3002 RMK AO2
KPAN 200215Z AUTO 00000KT 10SM 19/00 A3001 RMK AO2
KPAN 200155Z AUTO VRB03KT 10SM 20/00 A3001 RMK AO2
KPAN 200135Z AUTO VRB05G10KT 10SM 20/M00 A3000 RMK AO2
KPAN 200115Z AUTO 18005KT 10SM 21/M00 A3000 RMK AO2
KPAN 200055Z AUTO 18005KT 10SM 21/M00 A2999 RMK AO2
KPAN 200035Z AUTO 18008G15KT 10SM 22/M00 A2999 RMK AO2
KPAN 200015Z AUTO 18008G13KT 120V220 10SM 23/M00 A2999 RMK AO2
KPAN 192355Z AUTO 19006G12KT 10SM 23/M00 A3000 RMK AO2
KPAN 192335Z AUTO 21007G13KT 170V230 10SM 24/M01 A3000 RMK AO2
KPAN 192315Z AUTO 21009KT 10SM 24/M00 A3001 RMK AO2
KPAN 192255Z AUTO 19007G15KT 10SM 24/M01 A3001 RMK AO2
KPAN 192235Z AUTO VRB05G16KT 10SM 24/M00 A3002 RMK AO2
KPAN 192215Z AUTO 19007G17KT 140V210 10SM 24/M00 A3002 RMK AO2
KPAN 192155Z AUTO 17009KT 140V210 10SM 24/01 A3002 RMK AO2
KPAN 192135Z AUTO 19008G15KT 10SM 24/00 A3002 RMK AO2
KPAN 192115Z AUTO 10007G14KT 070V130 10SM 23/02 A3003 RMK AO2
KPAN 192055Z AUTO VRB05G11KT 10SM 23/01 A3004 RMK AO2
KPAN 192035Z AUTO 16006G14KT 10SM 24/01 A3004 RMK AO2
KPAN 192015Z AUTO VRB05G10KT 10SM 23/01 A3005 RMK AO2
KPAN 191955Z AUTO 11007KT 10SM 23/01 A3006 RMK AO2
KPAN 191935Z AUTO VRB06G13KT 10SM 23/00 A3008 RMK AO2
KPAN 191915Z AUTO VRB04KT 10SM 23/01 A3009 RMK AO2
KPAN 191855Z AUTO VRB03KT 10SM 21/01 A3010 RMK AO2
KPAN 191835Z AUTO 14005KT 10SM 21/01 A3011 RMK AO2
KPAN 191815Z AUTO VRB04KT 10SM -DZ 20/02 A3011 RMK AO2
KPAN 191755Z AUTO VRB04KT 10SM 20/01 A3011 RMK AO2
KPAN 191735Z AUTO 00000KT 10SM 20/01 A3011 RMK AO2
KPAN 191715Z AUTO 19004KT 10SM 21/00 A3011 RMK AO2
KPAN 191655Z AUTO VRB04KT 10SM 21/01 A3011 RMK AO2
KPAN 191635Z AUTO 19004KT 10SM 21/01 A3011 RMK AO2
KPAN 191615Z AUTO 18004KT 10SM 21/01 A3011 RMK AO2
KPAN 191555Z AUTO VRB05KT 10SM 20/02 A3011 RMK AO2
KPAN 191535Z AUTO 00000KT 10SM 21/02 A3011 RMK AO2
KPAN 191515Z AUTO 00000KT 10SM 18/03 A3010 RMK AO2
KPAN 191455Z AUTO 00000KT 10SM 15/03 A3010 RMK AO2
KPAN 191435Z AUTO 00000KT 10SM 15/02 A3010 RMK AO2
KPAN 191415Z AUTO 00000KT 10SM 14/02 A3009 RMK AO2
KPAN 191355Z AUTO 00000KT 10SM 15/02 A3009 RMK AO2
KPAN 191315Z AUTO 00000KT 10SM 15/03 A3009 RMK AO2